sensor_id;sensor_type;location;lat;lon;timestamp;P1;durP1;ratioP1;P2;durP2;ratioP2
38312;SDS011;24114;52.260;6.714;2022-09-28T00:02:20;8.68;;;7.78;;
38312;SDS011;24114;52.260;6.714;2022-09-28T00:04:48;8.27;;;7.47;;
38312;SDS011;24114;52.260;6.714;2022-09-28T00:07:15;8.32;;;7.32;;
38312;SDS011;24114;52.260;6.714;2022-09-28T00:09:43;9.70;;;7.45;;
38312;SDS011;24114;52.260;6.714;2022-09-28T00:12:11;9.35;;;7.82;;
38312;SDS011;24114;52.260;6.714;2022-09-28T00:14:38;9.50;;;8.27;;
38312;SDS011;24114;52.260;6.714;2022-09-28T00:17:08;9.50;;;8.13;;
38312;SDS011;24114;52.260;6.714;2022-09-28T00:19:38;9.35;;;8.43;;
38312;SDS011;24114;52.260;6.714;2022-09-28T00:22:06;9.48;;;8.32;;
38312;SDS011;24114;52.260;6.714;2022-09-28T00:24:34;9.57;;;8.27;;
38312;SDS011;24114;52.260;6.714;2022-09-28T00:27:01;11.35;;;9.02;;
38312;SDS011;24114;52.260;6.714;2022-09-28T00:29:30;9.60;;;8.70;;
38312;SDS011;24114;52.260;6.714;2022-09-28T00:31:59;10.18;;;9.15;;
38312;SDS011;24114;52.260;6.714;2022-09-28T00:34:29;9.93;;;9.02;;
38312;SDS011;24114;52.260;6.714;2022-09-28T00:37:00;9.43;;;8.25;;
38312;SDS011;24114;52.260;6.714;2022-09-28T00:39:28;10.73;;;8.95;;
38312;SDS011;24114;52.260;6.714;2022-09-28T00:41:57;10.60;;;8.52;;
38312;SDS011;24114;52.260;6.714;2022-09-28T00:44:41;9.15;;;8.25;;
38312;SDS011;24114;52.260;6.714;2022-09-28T00:50:05;10.75;;;8.70;;
38312;SDS011;24114;52.260;6.714;2022-09-28T00:52:37;10.73;;;8.20;;
38312;SDS011;24114;52.260;6.714;2022-09-28T00:55:08;10.00;;;8.73;;
38312;SDS011;24114;52.260;6.714;2022-09-28T00:57:38;9.80;;;8.80;;
38312;SDS011;24114;52.260;6.714;2022-09-28T01:00:08;9.82;;;8.80;;
38312;SDS011;24114;52.260;6.714;2022-09-28T01:02:37;10.00;;;8.20;;
38312;SDS011;24114;52.260;6.714;2022-09-28T01:05:05;9.90;;;8.90;;
38312;SDS011;24114;52.260;6.714;2022-09-28T01:07:34;7.85;;;7.05;;
38312;SDS011;24114;52.260;6.714;2022-09-28T01:10:03;11.52;;;8.90;;
38312;SDS011;24114;52.260;6.714;2022-09-28T01:12:32;9.85;;;8.55;;
38312;SDS011;24114;52.260;6.714;2022-09-28T01:14:59;9.85;;;8.70;;
38312;SDS011;24114;52.260;6.714;2022-09-28T01:17:29;10.75;;;9.65;;
38312;SDS011;24114;52.260;6.714;2022-09-28T01:20:09;9.75;;;8.60;;
38312;SDS011;24114;52.260;6.714;2022-09-28T01:23:09;10.15;;;9.15;;
38312;SDS011;24114;52.260;6.714;2022-09-28T01:29:28;10.30;;;8.52;;
38312;SDS011;24114;52.260;6.714;2022-09-28T01:32:04;9.27;;;8.45;;
38312;SDS011;24114;52.260;6.714;2022-09-28T01:34:38;11.15;;;9.15;;
38312;SDS011;24114;52.260;6.714;2022-09-28T01:37:12;10.45;;;8.63;;
38312;SDS011;24114;52.260;6.714;2022-09-28T01:39:42;11.57;;;10.38;;
38312;SDS011;24114;52.260;6.714;2022-09-28T01:42:13;10.98;;;9.77;;
38312;SDS011;24114;52.260;6.714;2022-09-28T01:44:46;13.98;;;10.68;;
38312;SDS011;24114;52.260;6.714;2022-09-28T01:47:16;13.05;;;10.85;;
38312;SDS011;24114;52.260;6.714;2022-09-28T01:49:47;12.55;;;11.23;;
38312;SDS011;24114;52.260;6.714;2022-09-28T01:52:18;14.10;;;11.73;;
38312;SDS011;24114;52.260;6.714;2022-09-28T01:54:50;11.85;;;10.60;;
38312;SDS011;24114;52.260;6.714;2022-09-28T01:57:22;14.57;;;11.98;;
38312;SDS011;24114;52.260;6.714;2022-09-28T01:59:54;13.32;;;11.90;;
38312;SDS011;24114;52.260;6.714;2022-09-28T02:02:25;16.05;;;12.20;;
38312;SDS011;24114;52.260;6.714;2022-09-28T02:04:58;13.20;;;11.80;;
38312;SDS011;24114;52.260;6.714;2022-09-28T02:07:31;14.60;;;12.00;;
38312;SDS011;24114;52.260;6.714;2022-09-28T02:10:04;13.32;;;11.90;;
38312;SDS011;24114;52.260;6.714;2022-09-28T02:12:36;13.02;;;11.65;;
38312;SDS011;24114;52.260;6.714;2022-09-28T02:15:09;13.05;;;11.65;;
38312;SDS011;24114;52.260;6.714;2022-09-28T02:17:40;13.52;;;11.02;;
38312;SDS011;24114;52.260;6.714;2022-09-28T02:20:08;15.32;;;12.18;;
38312;SDS011;24114;52.260;6.714;2022-09-28T02:22:38;14.30;;;12.35;;
38312;SDS011;24114;52.260;6.714;2022-09-28T02:25:08;13.20;;;11.77;;
38312;SDS011;24114;52.260;6.714;2022-09-28T02:27:39;12.82;;;11.48;;
38312;SDS011;24114;52.260;6.714;2022-09-28T02:30:10;18.52;;;11.88;;
38312;SDS011;24114;52.260;6.714;2022-09-28T02:32:39;13.07;;;11.60;;
38312;SDS011;24114;52.260;6.714;2022-09-28T02:35:10;13.35;;;11.95;;
38312;SDS011;24114;52.260;6.714;2022-09-28T02:37:40;15.00;;;12.80;;
38312;SDS011;24114;52.260;6.714;2022-09-28T02:40:11;15.23;;;11.90;;
38312;SDS011;24114;52.260;6.714;2022-09-28T02:42:43;13.88;;;12.35;;
38312;SDS011;24114;52.260;6.714;2022-09-28T02:45:20;18.38;;;12.50;;
38312;SDS011;24114;52.260;6.714;2022-09-28T02:47:55;17.05;;;13.15;;
38312;SDS011;24114;52.260;6.714;2022-09-28T02:50:32;15.25;;;12.75;;
38312;SDS011;24114;52.260;6.714;2022-09-28T02:53:10;16.35;;;13.25;;
38312;SDS011;24114;52.260;6.714;2022-09-28T02:55:51;15.25;;;12.45;;
38312;SDS011;24114;52.260;6.714;2022-09-28T02:58:29;16.85;;;12.55;;
38312;SDS011;24114;52.260;6.714;2022-09-28T03:01:05;16.27;;;13.73;;
38312;SDS011;24114;52.260;6.714;2022-09-28T03:03:40;16.63;;;13.02;;
38312;SDS011;24114;52.260;6.714;2022-09-28T03:06:13;16.08;;;12.98;;
38312;SDS011;24114;52.260;6.714;2022-09-28T03:08:47;17.80;;;14.52;;
38312;SDS011;24114;52.260;6.714;2022-09-28T03:11:19;17.55;;;13.90;;
38312;SDS011;24114;52.260;6.714;2022-09-28T03:13:49;16.20;;;13.68;;
38312;SDS011;24114;52.260;6.714;2022-09-28T03:16:18;17.60;;;14.35;;
38312;SDS011;24114;52.260;6.714;2022-09-28T03:18:46;16.50;;;13.93;;
38312;SDS011;24114;52.260;6.714;2022-09-28T03:21:14;16.50;;;13.82;;
38312;SDS011;24114;52.260;6.714;2022-09-28T03:23:42;17.13;;;13.85;;
38312;SDS011;24114;52.260;6.714;2022-09-28T03:26:10;16.80;;;13.57;;
38312;SDS011;24114;52.260;6.714;2022-09-28T03:28:38;17.20;;;13.85;;
38312;SDS011;24114;52.260;6.714;2022-09-28T03:31:07;16.13;;;14.43;;
38312;SDS011;24114;52.260;6.714;2022-09-28T03:33:36;16.45;;;14.55;;
38312;SDS011;24114;52.260;6.714;2022-09-28T03:36:04;17.75;;;14.95;;
38312;SDS011;24114;52.260;6.714;2022-09-28T03:38:33;16.85;;;14.27;;
38312;SDS011;24114;52.260;6.714;2022-09-28T03:41:01;18.88;;;15.05;;
38312;SDS011;24114;52.260;6.714;2022-09-28T03:43:29;19.75;;;14.77;;
38312;SDS011;24114;52.260;6.714;2022-09-28T03:45:57;20.67;;;17.35;;
38312;SDS011;24114;52.260;6.714;2022-09-28T03:48:27;19.90;;;15.80;;
38312;SDS011;24114;52.260;6.714;2022-09-28T03:51:00;21.40;;;17.02;;
38312;SDS011;24114;52.260;6.714;2022-09-28T03:53:28;23.02;;;17.73;;
38312;SDS011;24114;52.260;6.714;2022-09-28T03:56:00;22.15;;;16.42;;
38312;SDS011;24114;52.260;6.714;2022-09-28T03:58:29;22.00;;;17.42;;
38312;SDS011;24114;52.260;6.714;2022-09-28T04:00:59;21.33;;;16.42;;
38312;SDS011;24114;52.260;6.714;2022-09-28T04:03:28;20.92;;;17.50;;
38312;SDS011;24114;52.260;6.714;2022-09-28T04:05:56;23.20;;;16.77;;
38312;SDS011;24114;52.260;6.714;2022-09-28T04:08:26;20.67;;;16.42;;
38312;SDS011;24114;52.260;6.714;2022-09-28T04:10:54;23.17;;;16.25;;
38312;SDS011;24114;52.260;6.714;2022-09-28T04:13:22;20.35;;;15.38;;
38312;SDS011;24114;52.260;6.714;2022-09-28T04:15:51;19.08;;;16.00;;
38312;SDS011;24114;52.260;6.714;2022-09-28T04:18:19;16.67;;;14.50;;
38312;SDS011;24114;52.260;6.714;2022-09-28T04:20:47;20.20;;;14.73;;
38312;SDS011;24114;52.260;6.714;2022-09-28T04:23:14;21.50;;;14.98;;
38312;SDS011;24114;52.260;6.714;2022-09-28T04:25:44;16.15;;;13.18;;
38312;SDS011;24114;52.260;6.714;2022-09-28T04:28:18;17.00;;;13.80;;
38312;SDS011;24114;52.260;6.714;2022-09-28T04:31:06;17.23;;;14.18;;
38312;SDS011;24114;52.260;6.714;2022-09-28T04:33:35;15.63;;;13.70;;
38312;SDS011;24114;52.260;6.714;2022-09-28T04:36:03;16.88;;;14.10;;
38312;SDS011;24114;52.260;6.714;2022-09-28T04:38:31;15.73;;;13.30;;
38312;SDS011;24114;52.260;6.714;2022-09-28T04:41:19;16.40;;;13.27;;
38312;SDS011;24114;52.260;6.714;2022-09-28T04:43:48;17.33;;;14.05;;
38312;SDS011;24114;52.260;6.714;2022-09-28T04:46:15;17.13;;;12.93;;
38312;SDS011;24114;52.260;6.714;2022-09-28T04:48:43;17.08;;;13.75;;
38312;SDS011;24114;52.260;6.714;2022-09-28T04:51:11;17.30;;;14.32;;
38312;SDS011;24114;52.260;6.714;2022-09-28T04:53:39;17.65;;;14.75;;
38312;SDS011;24114;52.260;6.714;2022-09-28T04:56:08;18.13;;;14.45;;
38312;SDS011;24114;52.260;6.714;2022-09-28T04:58:38;17.98;;;14.00;;
38312;SDS011;24114;52.260;6.714;2022-09-28T05:01:07;16.10;;;13.45;;
38312;SDS011;24114;52.260;6.714;2022-09-28T05:03:37;18.38;;;14.30;;
38312;SDS011;24114;52.260;6.714;2022-09-28T05:06:05;19.25;;;14.02;;
38312;SDS011;24114;52.260;6.714;2022-09-28T05:08:33;17.02;;;14.07;;
38312;SDS011;24114;52.260;6.714;2022-09-28T05:11:02;19.17;;;14.13;;
38312;SDS011;24114;52.260;6.714;2022-09-28T05:13:31;16.25;;;13.63;;
38312;SDS011;24114;52.260;6.714;2022-09-28T05:16:02;18.83;;;14.27;;
38312;SDS011;24114;52.260;6.714;2022-09-28T05:18:31;18.83;;;14.30;;
38312;SDS011;24114;52.260;6.714;2022-09-28T05:20:58;16.85;;;14.40;;
38312;SDS011;24114;52.260;6.714;2022-09-28T05:23:27;17.52;;;14.20;;
38312;SDS011;24114;52.260;6.714;2022-09-28T05:25:54;18.50;;;13.77;;
38312;SDS011;24114;52.260;6.714;2022-09-28T05:28:23;17.67;;;14.10;;
38312;SDS011;24114;52.260;6.714;2022-09-28T05:30:56;17.05;;;13.43;;
38312;SDS011;24114;52.260;6.714;2022-09-28T05:33:26;19.67;;;13.57;;
38312;SDS011;24114;52.260;6.714;2022-09-28T05:35:54;15.85;;;12.40;;
38312;SDS011;24114;52.260;6.714;2022-09-28T05:38:26;15.50;;;13.25;;
38312;SDS011;24114;52.260;6.714;2022-09-28T05:40:55;16.30;;;12.70;;
38312;SDS011;24114;52.260;6.714;2022-09-28T05:43:23;15.60;;;12.85;;
38312;SDS011;24114;52.260;6.714;2022-09-28T05:45:50;17.35;;;13.25;;
38312;SDS011;24114;52.260;6.714;2022-09-28T05:48:21;17.20;;;13.73;;
38312;SDS011;24114;52.260;6.714;2022-09-28T05:50:51;16.20;;;13.30;;
38312;SDS011;24114;52.260;6.714;2022-09-28T05:53:19;16.50;;;13.02;;
38312;SDS011;24114;52.260;6.714;2022-09-28T05:55:46;15.20;;;12.50;;
38312;SDS011;24114;52.260;6.714;2022-09-28T05:58:14;17.20;;;13.00;;
38312;SDS011;24114;52.260;6.714;2022-09-28T06:00:42;15.70;;;12.70;;
38312;SDS011;24114;52.260;6.714;2022-09-28T06:03:11;17.13;;;13.18;;
38312;SDS011;24114;52.260;6.714;2022-09-28T06:05:40;17.17;;;13.35;;
38312;SDS011;24114;52.260;6.714;2022-09-28T06:08:09;15.60;;;12.48;;
38312;SDS011;24114;52.260;6.714;2022-09-28T06:10:37;16.58;;;13.23;;
38312;SDS011;24114;52.260;6.714;2022-09-28T06:13:05;17.30;;;13.38;;
38312;SDS011;24114;52.260;6.714;2022-09-28T06:15:34;18.00;;;13.52;;
38312;SDS011;24114;52.260;6.714;2022-09-28T06:18:03;16.60;;;13.00;;
38312;SDS011;24114;52.260;6.714;2022-09-28T06:20:33;18.20;;;12.77;;
38312;SDS011;24114;52.260;6.714;2022-09-28T06:23:01;15.80;;;12.73;;
38312;SDS011;24114;52.260;6.714;2022-09-28T06:25:31;18.27;;;13.85;;
38312;SDS011;24114;52.260;6.714;2022-09-28T06:27:59;16.30;;;13.45;;
38312;SDS011;24114;52.260;6.714;2022-09-28T06:30:28;16.10;;;13.25;;
38312;SDS011;24114;52.260;6.714;2022-09-28T06:32:59;16.80;;;13.20;;
38312;SDS011;24114;52.260;6.714;2022-09-28T06:35:28;16.33;;;13.15;;
38312;SDS011;24114;52.260;6.714;2022-09-28T06:37:56;16.35;;;13.38;;
38312;SDS011;24114;52.260;6.714;2022-09-28T06:40:25;18.83;;;13.68;;
38312;SDS011;24114;52.260;6.714;2022-09-28T06:42:55;18.25;;;13.77;;
38312;SDS011;24114;52.260;6.714;2022-09-28T06:45:23;18.08;;;14.00;;
38312;SDS011;24114;52.260;6.714;2022-09-28T06:47:52;14.95;;;12.77;;
38312;SDS011;24114;52.260;6.714;2022-09-28T06:50:21;16.58;;;13.27;;
38312;SDS011;24114;52.260;6.714;2022-09-28T06:52:50;16.40;;;13.43;;
38312;SDS011;24114;52.260;6.714;2022-09-28T06:55:19;16.70;;;13.27;;
38312;SDS011;24114;52.260;6.714;2022-09-28T06:57:47;17.70;;;13.88;;
38312;SDS011;24114;52.260;6.714;2022-09-28T07:00:25;16.30;;;13.25;;
38312;SDS011;24114;52.260;6.714;2022-09-28T07:02:53;17.73;;;13.10;;
38312;SDS011;24114;52.260;6.714;2022-09-28T07:05:21;15.73;;;11.90;;
38312;SDS011;24114;52.260;6.714;2022-09-28T07:07:52;16.42;;;13.13;;
38312;SDS011;24114;52.260;6.714;2022-09-28T07:10:21;13.48;;;11.23;;
38312;SDS011;24114;52.260;6.714;2022-09-28T07:12:50;17.25;;;12.13;;
38312;SDS011;24114;52.260;6.714;2022-09-28T07:15:19;13.00;;;11.00;;
38312;SDS011;24114;52.260;6.714;2022-09-28T07:17:47;15.65;;;12.00;;
38312;SDS011;24114;52.260;6.714;2022-09-28T07:20:27;15.30;;;12.40;;
38312;SDS011;24114;52.260;6.714;2022-09-28T07:22:55;14.68;;;12.18;;
38312;SDS011;24114;52.260;6.714;2022-09-28T07:25:38;13.80;;;11.13;;
38312;SDS011;24114;52.260;6.714;2022-09-28T07:28:10;14.10;;;11.80;;
38312;SDS011;24114;52.260;6.714;2022-09-28T07:30:40;15.40;;;11.60;;
38312;SDS011;24114;52.260;6.714;2022-09-28T07:33:10;14.18;;;11.45;;
38312;SDS011;24114;52.260;6.714;2022-09-28T07:35:39;15.77;;;11.88;;
38312;SDS011;24114;52.260;6.714;2022-09-28T07:38:08;15.13;;;12.40;;
38312;SDS011;24114;52.260;6.714;2022-09-28T07:40:37;16.75;;;12.20;;
38312;SDS011;24114;52.260;6.714;2022-09-28T07:43:23;13.75;;;11.52;;
38312;SDS011;24114;52.260;6.714;2022-09-28T07:45:52;16.60;;;11.63;;
38312;SDS011;24114;52.260;6.714;2022-09-28T07:48:21;15.07;;;12.32;;
38312;SDS011;24114;52.260;6.714;2022-09-28T07:50:49;15.60;;;11.57;;
38312;SDS011;24114;52.260;6.714;2022-09-28T07:53:17;14.10;;;12.02;;
38312;SDS011;24114;52.260;6.714;2022-09-28T07:55:49;13.98;;;11.45;;
38312;SDS011;24114;52.260;6.714;2022-09-28T07:58:17;15.00;;;11.60;;
38312;SDS011;24114;52.260;6.714;2022-09-28T08:00:45;14.15;;;10.38;;
38312;SDS011;24114;52.260;6.714;2022-09-28T08:03:15;13.85;;;10.43;;
38312;SDS011;24114;52.260;6.714;2022-09-28T08:05:44;12.93;;;11.35;;
38312;SDS011;24114;52.260;6.714;2022-09-28T08:08:12;14.75;;;11.38;;
38312;SDS011;24114;52.260;6.714;2022-09-28T08:10:40;12.68;;;10.10;;
38312;SDS011;24114;52.260;6.714;2022-09-28T08:13:12;12.18;;;10.07;;
38312;SDS011;24114;52.260;6.714;2022-09-28T08:15:41;13.90;;;9.35;;
38312;SDS011;24114;52.260;6.714;2022-09-28T08:18:09;11.23;;;8.85;;
38312;SDS011;24114;52.260;6.714;2022-09-28T08:20:38;14.30;;;9.75;;
38312;SDS011;24114;52.260;6.714;2022-09-28T08:23:23;13.82;;;10.70;;
38312;SDS011;24114;52.260;6.714;2022-09-28T08:25:51;14.63;;;10.73;;
38312;SDS011;24114;52.260;6.714;2022-09-28T08:28:20;13.43;;;10.05;;
38312;SDS011;24114;52.260;6.714;2022-09-28T08:30:48;10.82;;;9.73;;
38312;SDS011;24114;52.260;6.714;2022-09-28T08:33:17;12.50;;;9.32;;
38312;SDS011;24114;52.260;6.714;2022-09-28T08:35:53;12.80;;;9.40;;
38312;SDS011;24114;52.260;6.714;2022-09-28T08:38:22;12.25;;;10.35;;
38312;SDS011;24114;52.260;6.714;2022-09-28T08:40:53;11.65;;;9.65;;
38312;SDS011;24114;52.260;6.714;2022-09-28T08:43:32;11.60;;;10.15;;
38312;SDS011;24114;52.260;6.714;2022-09-28T08:46:19;11.80;;;9.70;;
38312;SDS011;24114;52.260;6.714;2022-09-28T08:48:53;9.73;;;8.30;;
38312;SDS011;24114;52.260;6.714;2022-09-28T08:51:46;9.93;;;8.90;;
38312;SDS011;24114;52.260;6.714;2022-09-28T08:54:21;9.93;;;8.65;;
38312;SDS011;24114;52.260;6.714;2022-09-28T08:56:53;10.77;;;9.53;;
38312;SDS011;24114;52.260;6.714;2022-09-28T08:59:22;9.07;;;7.97;;
38312;SDS011;24114;52.260;6.714;2022-09-28T09:01:53;9.88;;;8.38;;
38312;SDS011;24114;52.260;6.714;2022-09-28T09:04:23;9.13;;;7.45;;
38312;SDS011;24114;52.260;6.714;2022-09-28T09:06:56;8.02;;;7.22;;
38312;SDS011;24114;52.260;6.714;2022-09-28T09:09:35;9.50;;;7.53;;
38312;SDS011;24114;52.260;6.714;2022-09-28T09:12:11;8.50;;;7.00;;
38312;SDS011;24114;52.260;6.714;2022-09-28T09:14:58;7.55;;;6.75;;
38312;SDS011;24114;52.260;6.714;2022-09-28T09:17:37;6.53;;;5.63;;
38312;SDS011;24114;52.260;6.714;2022-09-28T09:20:12;5.93;;;5.25;;
38312;SDS011;24114;52.260;6.714;2022-09-28T09:22:54;7.35;;;6.47;;
38312;SDS011;24114;52.260;6.714;2022-09-28T09:25:25;8.13;;;5.70;;
38312;SDS011;24114;52.260;6.714;2022-09-28T09:27:59;8.55;;;6.90;;
38312;SDS011;24114;52.260;6.714;2022-09-28T09:30:40;7.63;;;6.32;;
38312;SDS011;24114;52.260;6.714;2022-09-28T09:33:23;5.65;;;5.10;;
38312;SDS011;24114;52.260;6.714;2022-09-28T09:36:06;5.55;;;4.55;;
38312;SDS011;24114;52.260;6.714;2022-09-28T09:38:43;7.47;;;5.63;;
38312;SDS011;24114;52.260;6.714;2022-09-28T09:41:20;7.32;;;6.47;;
38312;SDS011;24114;52.260;6.714;2022-09-28T09:44:02;6.78;;;6.07;;
38312;SDS011;24114;52.260;6.714;2022-09-28T09:46:48;7.03;;;5.90;;
38312;SDS011;24114;52.260;6.714;2022-09-28T09:49:19;8.40;;;5.97;;
38312;SDS011;24114;52.260;6.714;2022-09-28T09:51:49;6.72;;;5.90;;
38312;SDS011;24114;52.260;6.714;2022-09-28T09:54:21;7.18;;;6.30;;
38312;SDS011;24114;52.260;6.714;2022-09-28T09:56:52;7.65;;;6.78;;
38312;SDS011;24114;52.260;6.714;2022-09-28T09:59:24;7.65;;;6.40;;
38312;SDS011;24114;52.260;6.714;2022-09-28T10:01:54;8.63;;;7.38;;
38312;SDS011;24114;52.260;6.714;2022-09-28T10:04:23;7.90;;;4.72;;
38312;SDS011;24114;52.260;6.714;2022-09-28T10:06:55;10.90;;;7.28;;
38312;SDS011;24114;52.260;6.714;2022-09-28T10:09:26;8.75;;;7.45;;
38312;SDS011;24114;52.260;6.714;2022-09-28T10:11:57;9.50;;;7.35;;
38312;SDS011;24114;52.260;6.714;2022-09-28T10:14:24;7.18;;;6.40;;
38312;SDS011;24114;52.260;6.714;2022-09-28T10:16:54;10.10;;;7.38;;
38312;SDS011;24114;52.260;6.714;2022-09-28T10:19:24;7.05;;;6.35;;
38312;SDS011;24114;52.260;6.714;2022-09-28T10:21:56;8.80;;;7.30;;
38312;SDS011;24114;52.260;6.714;2022-09-28T10:24:30;8.00;;;6.82;;
38312;SDS011;24114;52.260;6.714;2022-09-28T10:27:03;6.80;;;5.75;;
38312;SDS011;24114;52.260;6.714;2022-09-28T10:29:36;6.32;;;4.72;;
38312;SDS011;24114;52.260;6.714;2022-09-28T10:32:18;3.45;;;3.17;;
38312;SDS011;24114;52.260;6.714;2022-09-28T10:34:49;4.93;;;4.40;;
38312;SDS011;24114;52.260;6.714;2022-09-28T10:37:17;5.20;;;4.70;;
38312;SDS011;24114;52.260;6.714;2022-09-28T10:39:48;3.30;;;3.00;;
38312;SDS011;24114;52.260;6.714;2022-09-28T10:42:18;10.88;;;3.85;;
38312;SDS011;24114;52.260;6.714;2022-09-28T10:44:51;3.92;;;3.50;;
38312;SDS011;24114;52.260;6.714;2022-09-28T10:48:23;2.90;;;2.55;;
38312;SDS011;24114;52.260;6.714;2022-09-28T10:50:58;4.10;;;3.05;;
38312;SDS011;24114;52.260;6.714;2022-09-28T10:53:43;2.88;;;2.58;;
38312;SDS011;24114;52.260;6.714;2022-09-28T10:56:26;4.28;;;3.20;;
38312;SDS011;24114;52.260;6.714;2022-09-28T10:58:54;3.10;;;2.80;;
38312;SDS011;24114;52.260;6.714;2022-09-28T11:01:23;3.50;;;3.20;;
38312;SDS011;24114;52.260;6.714;2022-09-28T11:03:55;4.82;;;3.15;;
38312;SDS011;24114;52.260;6.714;2022-09-28T11:06:24;3.70;;;3.40;;
38312;SDS011;24114;52.260;6.714;2022-09-28T11:08:55;4.20;;;3.20;;
38312;SDS011;24114;52.260;6.714;2022-09-28T11:11:24;3.55;;;2.45;;
38312;SDS011;24114;52.260;6.714;2022-09-28T11:13:52;2.65;;;2.45;;
38312;SDS011;24114;52.260;6.714;2022-09-28T11:16:23;3.15;;;2.75;;
38312;SDS011;24114;52.260;6.714;2022-09-28T11:18:54;2.97;;;2.40;;
38312;SDS011;24114;52.260;6.714;2022-09-28T11:21:23;2.88;;;1.92;;
38312;SDS011;24114;52.260;6.714;2022-09-28T11:23:57;3.08;;;2.35;;
38312;SDS011;24114;52.260;6.714;2022-09-28T11:26:36;1.98;;;1.80;;
38312;SDS011;24114;52.260;6.714;2022-09-28T11:31:00;3.73;;;2.53;;
38312;SDS011;24114;52.260;6.714;2022-09-28T11:33:29;2.90;;;1.40;;
38312;SDS011;24114;52.260;6.714;2022-09-28T11:36:08;2.17;;;1.90;;
38312;SDS011;24114;52.260;6.714;2022-09-28T11:38:54;1.85;;;1.35;;
38312;SDS011;24114;52.260;6.714;2022-09-28T11:41:33;1.88;;;1.77;;
38312;SDS011;24114;52.260;6.714;2022-09-28T11:44:15;2.72;;;1.48;;
38312;SDS011;24114;52.260;6.714;2022-09-28T11:47:03;2.70;;;1.80;;
38312;SDS011;24114;52.260;6.714;2022-09-28T11:49:41;3.20;;;1.88;;
38312;SDS011;24114;52.260;6.714;2022-09-28T11:53:50;0.80;;;0.68;;
38312;SDS011;24114;52.260;6.714;2022-09-28T11:56:23;2.53;;;0.70;;
38312;SDS011;24114;52.260;6.714;2022-09-28T11:58:58;1.00;;;0.88;;
38312;SDS011;24114;52.260;6.714;2022-09-28T12:01:30;1.27;;;0.70;;
38312;SDS011;24114;52.260;6.714;2022-09-28T12:04:03;0.90;;;0.45;;
38312;SDS011;24114;52.260;6.714;2022-09-28T12:06:33;1.45;;;0.40;;
38312;SDS011;24114;52.260;6.714;2022-09-28T12:09:16;1.05;;;0.40;;
38312;SDS011;24114;52.260;6.714;2022-09-28T12:11:49;1.00;;;0.60;;
38312;SDS011;24114;52.260;6.714;2022-09-28T12:15:53;1.20;;;0.52;;
38312;SDS011;24114;52.260;6.714;2022-09-28T12:18:43;1.63;;;0.77;;
38312;SDS011;24114;52.260;6.714;2022-09-28T12:21:24;2.35;;;0.40;;
38312;SDS011;24114;52.260;6.714;2022-09-28T12:23:59;0.68;;;0.20;;
38312;SDS011;24114;52.260;6.714;2022-09-28T12:26:31;0.73;;;0.40;;
38312;SDS011;24114;52.260;6.714;2022-09-28T12:29:04;0.63;;;0.20;;
38312;SDS011;24114;52.260;6.714;2022-09-28T12:31:38;1.10;;;0.60;;
38312;SDS011;24114;52.260;6.714;2022-09-28T12:34:10;2.33;;;0.30;;
38312;SDS011;24114;52.260;6.714;2022-09-28T12:36:40;2.35;;;0.30;;
38312;SDS011;24114;52.260;6.714;2022-09-28T12:39:22;0.70;;;0.30;;
38312;SDS011;24114;52.260;6.714;2022-09-28T12:42:18;1.00;;;0.30;;
38312;SDS011;24114;52.260;6.714;2022-09-28T12:44:58;1.02;;;0.55;;
38312;SDS011;24114;52.260;6.714;2022-09-28T12:47:56;2.42;;;0.30;;
38312;SDS011;24114;52.260;6.714;2022-09-28T12:50:37;1.85;;;0.40;;
38312;SDS011;24114;52.260;6.714;2022-09-28T12:53:29;0.77;;;0.35;;
38312;SDS011;24114;52.260;6.714;2022-09-28T12:58:07;2.53;;;0.32;;
38312;SDS011;24114;52.260;6.714;2022-09-28T13:00:48;0.88;;;0.32;;
38312;SDS011;24114;52.260;6.714;2022-09-28T13:03:26;1.10;;;0.35;;
